Time;durP1;ratioP1;P1;durP2;ratioP2;P2;SDS_P1;SDS_P2;PMS_P1;PMS_P2;Temp;Humidity;BMP_temperature;BMP_pressure;BME280_temperature;BME280_humidity;BME280_pressure;Samples;Min_cycle;Max_cycle;Signal;HPM_P1;HPM_P2
2020/12/15 00:00:37;;;;;;;15.30;9.30;;;;;;;4.78;100.00;101752.83;1917957;74;21159;-85
2020/12/15 00:03:05;;;;;;;12.88;9.40;;;;;;;4.78;100.00;101756.69;1917895;74;20902;-79
2020/12/15 00:09:39;;;;;;;17.42;10.63;;;;;;;4.76;100.00;101751.57;1918172;74;20905;-81
2020/12/15 00:12:07;;;;;;;13.15;9.90;;;;;;;4.75;100.00;101758.87;1917996;74;20905;-84
2020/12/15 00:14:35;;;;;;;16.50;10.18;;;;;;;4.73;100.00;101764.50;1917702;74;21114;-86
2020/12/15 00:17:03;;;;;;;15.03;10.00;;;;;;;4.73;100.00;101767.52;1917672;74;20921;-83
2020/12/15 00:19:31;;;;;;;13.90;9.63;;;;;;;4.71;100.00;101763.71;1917853;74;20901;-86
2020/12/15 00:21:59;;;;;;;10.82;8.88;;;;;;;4.68;100.00;101762.94;1917910;74;21451;-83
2020/12/15 00:24:27;;;;;;;13.48;8.83;;;;;;;4.67;100.00;101766.38;1917909;74;21028;-86
2020/12/15 00:26:55;;;;;;;13.15;9.23;;;;;;;4.67;100.00;101763.38;1917933;74;21062;-86
2020/12/15 00:29:23;;;;;;;13.15;8.90;;;;;;;4.69;100.00;101764.17;1917767;74;20917;-82
2020/12/15 00:31:51;;;;;;;12.00;8.68;;;;;;;4.66;100.00;101757.81;1917937;74;20925;-81
2020/12/15 00:34:19;;;;;;;10.95;8.95;;;;;;;4.67;100.00;101755.66;1918011;74;20909;-84
2020/12/15 00:36:46;;;;;;;15.78;9.98;;;;;;;4.69;100.00;101759.49;1918033;74;21023;-87
2020/12/15 00:39:14;;;;;;;10.48;8.60;;;;;;;4.67;100.00;101755.66;1917914;74;21338;-82
2020/12/15 00:41:50;;;;;;;10.05;8.03;;;;;;;4.66;100.00;101750.10;1917724;74;21071;-86
2020/12/15 00:44:18;;;;;;;11.25;8.73;;;;;;;4.67;100.00;101751.80;1919114;74;20944;-82
2020/12/15 00:46:50;;;;;;;11.25;8.15;;;;;;;4.68;100.00;101750.08;1920409;74;20921;-79
2020/12/15 00:49:19;;;;;;;12.95;9.00;;;;;;;4.65;100.00;101752.30;1920545;74;21460;-87
2020/12/15 00:51:48;;;;;;;10.50;8.60;;;;;;;4.66;100.00;101746.68;1920521;74;21346;-84
2020/12/15 00:54:16;;;;;;;11.25;8.65;;;;;;;4.66;100.00;101756.53;1920555;74;20967;-83
2020/12/15 00:56:45;;;;;;;11.45;8.25;;;;;;;4.67;100.00;101754.38;1920649;74;20940;-85
2020/12/15 00:59:16;;;;;;;12.47;8.55;;;;;;;4.70;100.00;101751.73;1920642;74;20928;-86
2020/12/15 01:01:43;;;;;;;10.75;8.10;;;;;;;4.73;100.00;101761.08;1920786;74;20917;-84
2020/12/15 01:04:12;;;;;;;11.30;8.45;;;;;;;4.74;100.00;101754.63;1920970;74;22071;-86
2020/12/15 01:06:42;;;;;;;11.03;8.55;;;;;;;4.76;100.00;101748.15;1920490;74;21526;-81
2020/12/15 01:09:10;;;;;;;11.68;8.05;;;;;;;4.77;100.00;101757.12;1919560;74;21071;-87
2020/12/15 01:11:39;;;;;;;10.95;8.65;;;;;;;4.80;100.00;101760.06;1920381;74;20905;-84
2020/12/15 01:14:11;;;;;;;10.93;8.48;;;;;;;4.82;100.00;101762.14;1920612;74;20952;-81
2020/12/15 01:16:40;;;;;;;10.43;8.30;;;;;;;4.83;100.00;101762.98;1920498;74;22081;-83
2020/12/15 01:19:09;;;;;;;11.22;8.73;;;;;;;4.81;100.00;101761.76;1920343;74;20960;-81
2020/12/15 01:21:37;;;;;;;11.00;8.53;;;;;;;4.82;100.00;101766.47;1920526;74;20964;-83
2020/12/15 01:24:07;;;;;;;23.52;13.90;;;;;;;4.85;100.00;101779.24;1920775;74;21023;-86
2020/12/15 01:26:36;;;;;;;21.05;13.68;;;;;;;4.85;100.00;101774.92;1915629;74;21484;-85
2020/12/15 01:29:04;;;;;;;25.08;14.45;;;;;;;4.88;100.00;101776.59;1920575;74;22083;-88
2020/12/15 01:31:32;;;;;;;15.28;9.48;;;;;;;4.87;100.00;101776.19;1920324;74;21042;-84
2020/12/15 01:34:02;;;;;;;13.13;9.20;;;;;;;4.87;99.16;101775.75;1917769;74;20940;-85
2020/12/15 01:36:34;;;;;;;;;;;;;;;4.87;98.74;101778.76;1921055;74;21024;-80
2020/12/15 01:39:04;;;;;;;6.67;5.95;;;;;;;4.89;98.83;101783.41;1919846;74;20126;-82
2020/12/15 01:41:34;;;;;;;6.33;5.25;;;;;;;4.89;98.30;101782.97;1919021;74;22108;-82
2020/12/15 01:44:03;;;;;;;6.03;4.70;;;;;;;4.92;97.86;101782.05;1919644;73;21463;-82
2020/12/15 01:46:33;;;;;;;6.70;5.10;;;;;;;4.95;97.43;101796.96;1917384;74;21040;-85
2020/12/15 01:49:01;;;;;;;8.83;6.08;;;;;;;4.93;96.87;101801.31;1917913;74;21526;-79
2020/12/15 01:51:31;;;;;;;7.03;5.95;;;;;;;4.93;96.89;101796.61;1917186;74;20908;-81
2020/12/15 01:54:01;;;;;;;7.87;5.45;;;;;;;4.93;96.62;101790.17;1917495;74;22079;-81
2020/12/15 01:56:31;;;;;;;6.30;5.10;;;;;;;4.90;96.32;101788.53;1917553;74;20932;-86
2020/12/15 01:59:03;;;;;;;5.67;5.05;;;;;;;4.89;96.04;101784.26;1890675;74;20949;-81
2020/12/15 02:01:45;;;;;;;6.85;4.85;;;;;;;4.88;96.17;101788.17;1890157;74;21032;-82
2020/12/15 02:04:15;;;;;;;8.18;5.58;;;;;;;4.88;96.14;101791.59;1917184;74;20944;-83
2020/12/15 02:06:47;;;;;;;6.85;5.22;;;;;;;4.88;96.29;101791.59;1916045;74;22292;-86
2020/12/15 02:09:17;;;;;;;8.63;5.60;;;;;;;4.87;96.47;101789.04;1918024;74;20885;-81
2020/12/15 02:11:48;;;;;;;10.20;6.20;;;;;;;4.84;96.56;101780.97;1916825;74;20952;-86
2020/12/15 02:14:16;;;;;;;10.53;6.70;;;;;;;4.87;96.53;101786.47;1917817;74;20877;-84
2020/12/15 02:16:50;;;;;;;6.40;4.92;;;;;;;4.87;96.42;101787.75;1917858;74;20854;-82
2020/12/15 02:19:20;;;;;;;6.05;5.30;;;;;;;4.87;96.71;101793.75;1891873;74;21114;-81
2020/12/15 02:21:55;;;;;;;6.33;5.17;;;;;;;4.87;96.65;101789.89;1917804;74;20957;-86
2020/12/15 02:24:26;;;;;;;10.95;6.20;;;;;;;4.88;96.47;101794.16;1917821;74;20897;-84
2020/12/15 02:26:55;;;;;;;9.20;5.90;;;;;;;4.88;96.47;101793.31;1912144;74;20929;-85
2020/12/15 02:29:25;;;;;;;5.05;4.25;;;;;;;4.86;96.58;101803.63;1917285;74;21495;-85
2020/12/15 02:31:53;;;;;;;10.48;5.67;;;;;;;4.84;95.83;101804.55;1917981;74;21455;-80
2020/12/15 02:34:21;;;;;;;9.90;6.55;;;;;;;4.82;95.82;101802.47;1917922;74;20948;-77
2020/12/15 02:36:49;;;;;;;8.15;5.37;;;;;;;4.82;96.25;101808.89;1918026;74;21499;-85
2020/12/15 02:39:19;;;;;;;6.80;4.90;;;;;;;4.83;96.36;101805.42;1917385;74;20897;-79
2020/12/15 02:41:53;;;;;;;6.85;4.78;;;;;;;4.82;96.33;101803.28;1912868;74;20893;-81
2020/12/15 02:44:23;;;;;;;4.65;4.15;;;;;;;4.80;95.94;101806.34;1918261;74;21170;-87
2020/12/15 02:46:53;;;;;;;4.40;4.00;;;;;;;4.81;96.04;101810.62;1918882;74;21487;-77
2020/12/15 02:49:21;;;;;;;5.00;4.25;;;;;;;4.83;96.15;101806.70;1920479;74;20948;-84
2020/12/15 02:51:49;;;;;;;6.17;4.08;;;;;;;4.84;95.98;101810.54;1920425;74;20909;-81
2020/12/15 02:54:19;;;;;;;4.72;3.90;;;;;;;4.83;95.83;101811.41;1918443;74;20936;-81
2020/12/15 02:56:47;;;;;;;5.58;4.45;;;;;;;4.82;96.02;101815.33;1920278;74;21107;-81
2020/12/15 02:59:16;;;;;;;4.30;3.60;;;;;;;4.85;96.07;101822.97;1920807;74;20932;-84
2020/12/15 03:01:44;;;;;;;4.80;4.30;;;;;;;4.84;96.05;101814.84;1920489;74;20869;-85
2020/12/15 03:04:13;;;;;;;6.17;5.15;;;;;;;4.83;95.76;101814.42;1920984;74;20917;-84
2020/12/15 03:06:43;;;;;;;4.87;4.35;;;;;;;4.79;95.97;101813.64;1920444;74;20901;-85
2020/12/15 03:09:13;;;;;;;5.05;4.00;;;;;;;4.78;96.10;101814.11;1920208;74;21199;-81
2020/12/15 03:11:43;;;;;;;5.42;4.55;;;;;;;4.78;96.22;101818.41;1919810;74;21502;-85
2020/12/15 03:14:12;;;;;;;6.67;5.45;;;;;;;4.79;96.40;101824.78;1918718;74;20944;-83
2020/12/15 03:16:40;;;;;;;5.83;5.05;;;;;;;4.78;96.35;101822.27;1887320;74;20925;-81
2020/12/15 03:19:09;;;;;;;6.10;5.37;;;;;;;4.76;96.52;101821.00;1920364;74;21067;-78
2020/12/15 03:21:39;;;;;;;5.45;4.67;;;;;;;4.77;96.42;101821.84;1920481;74;21240;-84
2020/12/15 03:24:07;;;;;;;6.47;5.20;;;;;;;4.75;96.22;101831.34;1920413;74;20916;-84
2020/12/15 03:26:35;;;;;;;16.48;7.97;;;;;;;4.72;96.24;101824.52;1920498;74;20920;-83
2020/12/15 03:29:05;;;;;;;11.43;6.40;;;;;;;4.70;96.06;101836.57;1920369;74;21483;-80
2020/12/15 03:31:33;;;;;;;6.42;5.30;;;;;;;4.69;96.32;101834.88;1920358;74;21451;-82
2020/12/15 03:34:03;;;;;;;8.80;6.17;;;;;;;4.70;96.68;101830.58;1920400;74;21170;-81
2020/12/15 03:36:31;;;;;;;8.20;6.40;;;;;;;4.71;96.67;101830.56;1919950;74;20920;-81
2020/12/15 03:39:00;;;;;;;8.18;7.22;;;;;;;4.74;96.80;101830.48;1920242;74;20905;-84
2020/12/15 03:41:29;;;;;;;10.60;8.10;;;;;;;4.75;96.95;101828.77;1920287;74;20909;-80
2020/12/15 03:43:59;;;;;;;9.10;7.30;;;;;;;4.76;96.97;101825.30;1918412;74;21475;-80
2020/12/15 03:46:31;;;;;;;10.25;8.33;;;;;;;4.75;97.02;101834.73;1923354;74;21353;-78
2020/12/15 03:49:01;;;;;;;11.25;8.20;;;;;;;4.74;96.96;101831.77;1924004;74;21054;-85
2020/12/15 03:51:31;;;;;;;11.65;9.30;;;;;;;4.72;97.00;101832.70;1923778;74;20925;-80
2020/12/15 03:54:17;;;;;;;12.18;10.08;;;;;;;4.70;97.04;101834.00;1924396;74;20901;-82
2020/12/15 03:57:00;;;;;;;13.98;9.10;;;;;;;4.69;97.06;101838.73;1920292;74;20948;-86
2020/12/15 03:59:31;;;;;;;13.03;9.43;;;;;;;4.67;97.13;101838.37;1896318;74;21270;-86
2020/12/15 04:02:00;;;;;;;11.95;8.78;;;;;;;4.67;97.26;101841.79;1896232;74;20960;-80
2020/12/15 04:04:29;;;;;;;12.00;9.43;;;;;;;4.65;97.32;101842.70;1923989;74;20932;-86
2020/12/15 04:06:57;;;;;;;12.20;9.10;;;;;;;4.63;97.52;101848.30;1923958;74;20889;-80
2020/12/15 04:09:27;;;;;;;9.15;7.45;;;;;;;4.61;97.57;101845.79;1923038;74;21035;-80
2020/12/15 04:11:57;;;;;;;9.88;7.85;;;;;;;4.61;97.48;101847.07;1924335;74;22068;-84
2020/12/15 04:14:26;;;;;;;8.80;7.17;;;;;;;4.58;97.34;101848.43;1896029;74;21043;-85
2020/12/15 04:16:56;;;;;;;9.08;7.33;;;;;;;4.56;97.28;101859.63;1924092;74;21051;-82
2020/12/15 04:19:24;;;;;;;8.53;7.20;;;;;;;4.56;97.48;101857.06;1924082;74;20897;-87
2020/12/15 04:21:52;;;;;;;15.05;7.58;;;;;;;4.53;97.34;101860.52;1924226;74;21023;-86
2020/12/15 04:24:22;;;;;;;9.88;7.62;;;;;;;4.53;97.35;101863.55;1923424;74;21235;-88
2020/12/15 04:26:52;;;;;;;9.40;7.42;;;;;;;4.51;97.21;101866.58;1922146;74;20933;-80
2020/12/15 04:29:20;;;;;;;9.43;7.65;;;;;;;4.47;97.22;101867.08;1924111;74;20944;-83
2020/12/15 04:31:55;;;;;;;7.90;6.75;;;;;;;4.48;97.24;101875.21;1923778;74;21456;-84
2020/12/15 04:34:24;;;;;;;6.97;6.22;;;;;;;4.48;97.30;101879.06;1923833;74;20897;-81
2020/12/15 04:36:54;;;;;;;9.63;8.15;;;;;;;4.51;97.45;101889.71;1924018;74;21157;-84
2020/12/15 04:39:24;;;;;;;9.48;7.55;;;;;;;4.50;97.64;101900.42;1923355;74;21055;-84
2020/12/15 04:41:52;;;;;;;12.37;7.50;;;;;;;4.52;97.76;101901.70;1924291;74;20885;-85
2020/12/15 04:44:20;;;;;;;11.57;8.75;;;;;;;4.54;97.82;101905.06;1924343;74;21486;-87
2020/12/15 04:47:14;;;;;;;12.35;9.23;;;;;;;4.54;97.82;101912.34;1918021;73;21055;-84
2020/12/15 04:50:04;;;;;;;12.55;9.35;;;;;;;4.54;97.83;101909.78;1918040;74;21182;-84
2020/12/15 04:52:58;;;;;;;14.15;9.88;;;;;;;4.54;98.01;101906.35;1917128;74;20889;-82
2020/12/15 04:55:31;;;;;;;12.05;9.10;;;;;;;4.53;97.94;101910.64;1887188;74;20947;-79
2020/12/15 04:58:00;;;;;;;12.03;9.35;;;;;;;4.57;98.10;101912.71;1890806;74;21941;-79
2020/12/15 05:00:29;;;;;;;12.53;8.70;;;;;;;4.57;98.07;101913.56;1917971;74;21487;-81
2020/12/15 05:02:59;;;;;;;10.72;8.23;;;;;;;4.57;97.82;101920.42;1915862;74;21475;-79
2020/12/15 05:05:29;;;;;;;11.68;9.35;;;;;;;4.57;97.65;101930.70;1917832;74;21114;-79
2020/12/15 05:08:02;;;;;;;12.88;9.28;;;;;;;4.53;97.60;101922.67;1917728;74;20937;-79
2020/12/15 05:10:38;;;;;;;10.45;8.85;;;;;;;4.52;97.76;101930.82;1916465;74;21499;-81
2020/12/15 05:13:19;;;;;;;12.85;9.18;;;;;;;4.53;97.80;101936.81;1915028;74;20909;-81
2020/12/15 05:15:48;;;;;;;10.78;9.05;;;;;;;4.54;97.86;101937.20;1889962;74;21182;-79
2020/12/15 05:18:34;;;;;;;14.47;9.85;;;;;;;4.57;97.85;101936.70;1917971;74;20869;-85
2020/12/15 05:21:16;;;;;;;11.95;9.15;;;;;;;4.57;97.58;101930.27;1917895;73;21436;-82
2020/12/15 05:23:49;;;;;;;12.53;9.60;;;;;;;4.55;97.28;101930.75;1917324;74;20897;-82
2020/12/15 05:26:24;;;;;;;13.28;9.83;;;;;;;4.53;97.57;101934.24;1917927;74;20893;-78
2020/12/15 05:29:06;;;;;;;14.05;10.90;;;;;;;4.53;97.67;101936.81;1917991;74;21238;-80
2020/12/15 05:31:40;;;;;;;12.25;9.78;;;;;;;4.51;97.65;101938.12;1917284;74;21685;-81
2020/12/15 05:34:27;;;;;;;15.85;10.32;;;;;;;4.46;97.56;101939.95;1917942;74;20897;-84
2020/12/15 05:37:13;;;;;;;12.65;10.38;;;;;;;4.42;97.78;101943.88;1918143;74;21447;-82
2020/12/15 05:40:00;;;;;;;15.30;11.08;;;;;;;4.40;98.01;101950.36;1918021;74;21507;-87
2020/12/15 05:42:30;;;;;;;14.95;10.95;;;;;;;4.40;98.27;101955.50;1916677;74;21121;-84
2020/12/15 05:44:58;;;;;;;14.38;11.18;;;;;;;4.38;98.52;101958.52;1917598;73;20988;-84
2020/12/15 05:47:28;;;;;;;15.58;11.97;;;;;;;4.38;98.72;101962.37;1889952;74;20984;-81
2020/12/15 05:49:58;;;;;;;22.73;14.43;;;;;;;4.40;98.88;101965.78;1917986;74;20885;-84
2020/12/15 05:52:27;;;;;;;20.30;14.90;;;;;;;4.41;98.92;101975.16;1917972;74;21115;-79
2020/12/15 05:55:06;;;;;;;18.75;13.88;;;;;;;4.40;98.86;101976.05;1917688;74;21238;-83
2020/12/15 05:57:34;;;;;;;16.67;12.82;;;;;;;4.40;99.04;101976.05;1917759;74;20914;-82
2020/12/15 06:00:09;;;;;;;17.87;13.48;;;;;;;4.42;99.08;101978.14;1917825;74;20932;-79
2020/12/15 06:02:41;;;;;;;15.00;11.63;;;;;;;4.41;99.05;101972.59;1917832;74;20917;-80
2020/12/15 06:05:10;;;;;;;16.55;12.82;;;;;;;4.41;98.83;101982.02;1917794;74;21043;-81
2020/12/15 06:07:38;;;;;;;14.18;11.05;;;;;;;4.39;98.78;101988.48;1890011;74;22070;-80
2020/12/15 06:10:06;;;;;;;15.08;11.97;;;;;;;4.41;98.91;101997.44;1917716;74;21897;-80
2020/12/15 06:12:36;;;;;;;16.05;11.80;;;;;;;4.41;98.93;101992.30;1918150;74;21447;-87
2020/12/15 06:15:05;;;;;;;16.48;12.75;;;;;;;4.41;98.96;101997.00;1917967;74;21056;-81
2020/12/15 06:17:32;;;;;;;16.73;12.20;;;;;;;4.38;98.65;101993.20;1918147;74;20910;-83
2020/12/15 06:20:00;;;;;;;16.07;13.05;;;;;;;4.33;98.45;101997.60;1918054;73;21180;-84
2020/12/15 06:22:31;;;;;;;17.92;13.62;;;;;;;4.31;98.58;101995.48;1917871;74;21126;-82
2020/12/15 06:24:59;;;;;;;14.98;12.28;;;;;;;4.28;98.68;101996.39;1862769;74;20955;-87
2020/12/15 06:27:35;;;;;;;16.57;12.53;;;;;;;4.25;98.89;102009.30;1918192;74;20905;-81
2020/12/15 06:30:04;;;;;;;18.35;12.80;;;;;;;4.22;98.96;102008.50;1918317;74;20894;-86
2020/12/15 06:32:32;;;;;;;16.25;12.20;;;;;;;4.23;99.37;102013.63;1917852;74;21233;-78
2020/12/15 06:35:06;;;;;;;16.48;12.70;;;;;;;4.26;99.45;102008.87;1917814;74;21099;-81
2020/12/15 06:37:35;;;;;;;13.72;11.18;;;;;;;4.25;99.29;102014.87;1917764;73;21103;-84
2020/12/15 06:40:05;;;;;;;16.70;11.75;;;;;;;4.25;99.38;102017.00;1918396;73;20886;-79
2020/12/15 06:42:34;;;;;;;15.15;11.80;;;;;;;4.28;99.46;102023.80;1917910;74;21036;-84
2020/12/15 06:45:08;;;;;;;15.40;11.88;;;;;;;4.32;99.48;102028.02;1863423;74;21110;-81
2020/12/15 06:47:36;;;;;;;18.98;14.55;;;;;;;4.31;99.11;102031.45;1918050;73;21522;-85
2020/12/15 06:50:17;;;;;;;21.97;16.05;;;;;;;4.30;98.95;102027.64;1917935;74;21459;-86
2020/12/15 06:55:29;;;;;;;19.67;15.20;;;;;;;4.25;99.19;102033.70;1942793;71;22763;-86
2020/12/15 06:57:59;;;;;;;20.77;15.03;;;;;;;4.19;99.23;102040.24;1871175;74;21011;-83
2020/12/15 07:00:37;;;;;;;20.20;14.95;;;;;;;4.18;99.38;102043.67;1904268;73;22269;-86
2020/12/15 07:03:08;;;;;;;20.25;14.73;;;;;;;4.17;99.58;102046.29;1883427;75;21157;-82
2020/12/15 07:05:37;;;;;;;21.85;15.43;;;;;;;4.19;99.83;102050.95;1865071;75;20995;-81
2020/12/15 07:08:10;;;;;;;22.20;15.95;;;;;;;4.22;100.00;102061.17;1887125;74;21036;-81
2020/12/15 07:10:42;;;;;;;22.02;14.53;;;;;;;4.25;100.00;102059.83;1861596;76;21039;-80
2020/12/15 07:13:12;;;;;;;19.90;14.63;;;;;;;4.28;99.95;102064.91;1861963;76;21169;-82
2020/12/15 07:15:43;;;;;;;21.82;15.05;;;;;;;4.28;99.41;102063.63;1861582;76;20931;-82
2020/12/15 07:18:12;;;;;;;22.87;15.03;;;;;;;4.25;99.14;102070.11;1905119;74;21173;-83
2020/12/15 07:20:43;;;;;;;20.27;13.78;;;;;;;4.19;99.04;102065.94;1876188;74;26717;-83
2020/12/15 07:23:12;;;;;;;18.30;13.30;;;;;;;4.18;99.24;102069.37;1861991;75;21055;-80
2020/12/15 07:25:40;;;;;;;20.88;14.45;;;;;;;4.16;99.38;102071.13;1872505;74;21175;-83
2020/12/15 07:28:09;;;;;;;18.65;13.72;;;;;;;4.16;99.44;102074.13;1908069;74;21131;-84
2020/12/15 11:24:45;;;;;;;22.60;12.43;;;;;;;6.42;91.59;101977.22;1953922;72;22103;-83
2020/12/15 11:27:15;;;;;;;23.73;15.68;;;;;;;6.45;91.50;101969.84;1937895;73;20883;-79
2020/12/15 11:29:44;;;;;;;19.23;13.35;;;;;;;6.45;91.06;101965.97;1851338;76;21174;-80
2020/12/15 11:32:14;;;;;;;19.00;13.13;;;;;;;6.39;90.64;101969.14;1849650;75;21635;-85
2020/12/15 11:34:44;;;;;;;21.12;13.68;;;;;;;6.30;90.66;101969.83;1844630;75;21005;-83
2020/12/15 11:37:12;;;;;;;20.40;14.45;;;;;;;6.26;90.80;101970.36;1850609;75;21068;-82
2020/12/15 11:39:42;;;;;;;27.48;16.17;;;;;;;6.23;91.26;101973.02;1841951;75;21021;-83
2020/12/15 11:42:11;;;;;;;18.10;13.95;;;;;;;6.26;91.40;101975.52;1844543;76;21166;-87
2020/12/15 11:44:42;;;;;;;20.48;14.05;;;;;;;6.29;91.42;101973.29;1872378;76;21055;-84
2020/12/15 11:47:10;;;;;;;23.20;13.93;;;;;;;6.28;91.10;101971.62;1870050;75;20995;-84
2020/12/15 11:49:39;;;;;;;28.80;16.65;;;;;;;6.23;91.01;101976.88;1859568;77;21661;-82
2020/12/15 11:52:10;;;;;;;20.02;13.05;;;;;;;6.21;91.01;101977.82;1857422;75;20934;-83
2020/12/15 11:54:40;;;;;;;22.62;14.65;;;;;;;6.21;90.93;101983.83;1837871;75;21187;-84
2020/12/15 11:57:11;;;;;;;27.70;16.02;;;;;;;6.19;91.08;101986.05;1848925;76;21162;-84
2020/12/15 11:59:58;;;;;;;32.63;18.50;;;;;;;6.22;91.46;101976.95;1826092;77;21033;-84
2020/12/15 12:02:28;;;;;;;23.90;15.65;;;;;;;6.25;91.58;101989.28;1825819;78;21539;-86
2020/12/15 12:04:56;;;;;;;16.87;13.50;;;;;;;6.29;91.21;101981.88;1835658;75;21020;-87
2020/12/15 12:07:24;;;;;;;16.27;12.80;;;;;;;6.32;91.24;101978.36;1836129;76;21236;-84
2020/12/15 12:09:52;;;;;;;18.62;11.55;;;;;;;6.34;90.70;101983.90;1869096;75;21141;-80
2020/12/15 12:12:20;;;;;;;15.32;11.10;;;;;;;6.35;90.30;101977.83;1849392;77;20965;-85
2020/12/15 12:14:50;;;;;;;16.95;11.95;;;;;;;6.39;90.01;101982.47;1817171;77;21168;-85
2020/12/15 12:17:21;;;;;;;22.90;14.15;;;;;;;6.41;89.97;101988.88;1843264;76;20996;-81
2020/12/15 12:20:08;;;;;;;26.90;15.88;;;;;;;6.40;89.75;101990.61;1837117;77;21307;-81
2020/12/15 12:22:36;;;;;;;25.25;13.80;;;;;;;6.36;89.32;101995.00;1840674;77;21060;-81
2020/12/15 12:25:07;;;;;;;22.52;15.30;;;;;;;6.37;89.71;101989.41;1837873;77;21076;-81
2020/12/15 12:27:37;;;;;;;18.60;13.00;;;;;;;6.38;89.91;101989.34;1884859;75;20909;-84
2020/12/15 12:30:07;;;;;;;22.75;14.93;;;;;;;6.40;89.93;101990.61;1832203;77;21092;-83
2020/12/15 12:32:36;;;;;;;18.65;13.48;;;;;;;6.43;89.76;101993.55;1833203;77;22192;-82
2020/12/15 12:35:04;;;;;;;19.98;14.40;;;;;;;6.44;89.41;101999.96;1855025;77;21009;-86
2020/12/15 12:37:40;;;;;;;21.77;14.70;;;;;;;6.44;89.48;102001.25;1846304;77;20938;-85
2020/12/15 12:40:16;;;;;;;21.77;15.05;;;;;;;6.45;89.42;102003.36;1824802;77;21171;-85
2020/12/15 12:43:01;;;;;;;17.10;12.45;;;;;;;6.43;89.40;102004.70;1831069;77;21135;-83
2020/12/15 12:45:30;;;;;;;16.15;12.68;;;;;;;6.44;89.30;102012.85;1831187;77;21184;-81
2020/12/15 12:48:04;;;;;;;23.65;14.40;;;;;;;6.44;89.21;102013.30;1834053;77;21014;-81
2020/12/15 12:50:35;;;;;;;25.43;18.37;;;;;;;6.42;89.34;102016.34;1828920;77;21116;-84
2020/12/15 12:53:04;;;;;;;20.55;14.45;;;;;;;6.41;89.57;102015.52;1830075;77;21195;-79
2020/12/15 12:55:31;;;;;;;20.48;13.62;;;;;;;6.41;89.33;102014.23;1838061;76;21167;-84
2020/12/15 12:58:00;;;;;;;15.30;11.53;;;;;;;6.38;88.35;102024.16;1842916;77;22162;-79
2020/12/15 13:00:28;;;;;;;18.12;12.28;;;;;;;6.31;87.93;102019.23;1855881;77;21064;-85
2020/12/15 13:02:57;;;;;;;16.25;12.98;;;;;;;6.25;88.29;102027.13;1856532;77;21092;-83
2020/12/15 13:05:25;;;;;;;13.53;11.12;;;;;;;6.18;88.62;102027.73;1856218;76;21053;-83
2020/12/15 13:07:53;;;;;;;17.32;12.47;;;;;;;6.17;88.92;102019.58;1844280;77;21072;-84
2020/12/15 13:10:21;;;;;;;16.27;12.95;;;;;;;6.15;88.90;102029.09;1840389;77;22021;-82
2020/12/15 13:12:51;;;;;;;17.02;12.70;;;;;;;6.16;89.32;102032.49;1846791;77;20989;-88
2020/12/15 13:15:24;;;;;;;16.60;12.45;;;;;;;6.13;89.60;102038.58;1826668;77;21631;-86
2020/12/15 13:17:55;;;;;;;17.52;13.43;;;;;;;6.13;89.75;102041.16;1837802;76;21091;-84
2020/12/15 13:20:27;;;;;;;18.45;12.88;;;;;;;6.13;90.00;102041.16;1837963;77;21650;-80
2020/12/15 13:22:55;;;;;;;15.15;11.75;;;;;;;6.13;90.09;102036.44;1839775;77;21234;-83
2020/12/15 13:25:23;;;;;;;23.32;15.95;;;;;;;6.12;90.24;102048.51;1839474;77;21052;-83
2020/12/15 13:27:51;;;;;;;21.33;14.73;;;;;;;6.15;90.33;102053.58;1827101;77;21610;-85
2020/12/15 13:30:19;;;;;;;23.47;17.73;;;;;;;6.15;90.30;102054.02;1822172;78;21615;-84
2020/12/15 13:32:47;;;;;;;18.02;13.83;;;;;;;6.14;90.58;102051.88;1829034;77;21057;-83
2020/12/15 13:35:15;;;;;;;22.73;17.60;;;;;;;6.16;90.31;102051.82;1850003;77;21173;-85
2020/12/15 13:37:43;;;;;;;23.12;15.08;;;;;;;6.19;90.46;102055.64;1841140;77;21567;-79
2020/12/15 13:40:11;;;;;;;22.52;17.45;;;;;;;6.19;90.24;102050.02;1836450;77;21626;-80
2020/12/15 13:42:40;;;;;;;18.98;13.70;;;;;;;6.21;90.30;102053.86;1839439;76;21008;-79
2020/12/15 13:45:10;;;;;;;20.20;12.80;;;;;;;6.24;90.53;102058.49;1840471;77;21171;-83
2020/12/15 13:47:41;;;;;;;18.35;12.85;;;;;;;6.27;90.59;102064.01;1840462;77;21173;-84
2020/12/15 13:50:08;;;;;;;15.90;13.15;;;;;;;6.30;90.61;102069.08;1839869;77;22150;-83
2020/12/15 13:52:37;;;;;;;21.50;14.83;;;;;;;6.28;90.54;102067.85;1840824;77;21147;-86
2020/12/15 13:55:06;;;;;;;21.00;14.98;;;;;;;6.28;90.44;102074.73;1835294;77;21580;-85
2020/12/15 13:57:36;;;;;;;27.60;15.10;;;;;;;6.25;90.49;102074.81;1837507;77;21555;-86
2020/12/15 14:00:08;;;;;;;24.35;16.52;;;;;;;6.23;90.78;102071.41;1837596;77;21305;-81
2020/12/15 14:02:36;;;;;;;18.60;14.35;;;;;;;6.24;90.83;102076.54;1839656;77;21049;-84
2020/12/15 14:05:04;;;;;;;15.20;12.30;;;;;;;6.23;91.00;102077.85;1839962;77;20993;-82
2020/12/15 14:07:35;;;;;;;14.68;11.35;;;;;;;6.22;90.88;102074.89;1837639;77;21057;-87
2020/12/15 14:10:12;;;;;;;25.20;13.03;;;;;;;6.22;90.97;102083.45;1837402;77;21598;-82
2020/12/15 14:12:40;;;;;;;24.85;16.12;;;;;;;6.21;91.00;102080.48;1838845;77;21180;-83
2020/12/15 14:15:08;;;;;;;19.67;13.75;;;;;;;6.21;91.09;102077.05;1840881;77;21619;-84
2020/12/15 14:17:36;;;;;;;18.40;13.18;;;;;;;6.21;91.04;102083.06;1837927;77;21051;-83
2020/12/15 14:20:04;;;;;;;19.77;13.98;;;;;;;6.19;91.04;102082.23;1837991;77;21001;-85
2020/12/15 14:22:32;;;;;;;17.42;12.70;;;;;;;6.19;91.09;102085.28;1841845;77;21116;-83
2020/12/15 14:25:02;;;;;;;20.23;15.15;;;;;;;6.19;91.03;102089.15;1848154;76;22076;-82
2020/12/15 14:27:30;;;;;;;22.52;14.50;;;;;;;6.18;91.19;102093.89;1857204;76;21644;-81
2020/12/15 14:29:59;;;;;;;17.15;12.43;;;;;;;6.19;91.32;102094.30;1847252;76;21686;-86
2020/12/15 14:32:26;;;;;;;22.30;13.98;;;;;;;6.19;91.36;102096.88;1867529;76;21072;-85
2020/12/15 14:34:54;;;;;;;21.10;13.10;;;;;;;6.19;91.47;102097.70;1886158;76;20900;-85
2020/12/15 14:37:23;;;;;;;20.55;13.68;;;;;;;6.21;91.44;102109.28;1887061;76;22064;-85
2020/12/15 14:39:53;;;;;;;19.48;13.95;;;;;;;6.21;91.39;102106.70;1877578;75;20913;-81
2020/12/15 14:42:22;;;;;;;23.73;14.07;;;;;;;6.19;91.45;102108.01;1864952;76;20918;-87
2020/12/15 14:44:50;;;;;;;21.40;14.60;;;;;;;6.21;91.70;102115.72;1868513;75;20949;-81
2020/12/15 14:47:18;;;;;;;25.88;16.45;;;;;;;6.20;91.63;102116.16;1848081;76;21456;-81
2020/12/15 14:49:47;;;;;;;20.50;14.28;;;;;;;6.19;91.83;102108.48;1906936;75;21182;-80
2020/12/15 14:52:14;;;;;;;20.35;12.35;;;;;;;6.19;91.85;102104.61;1887189;76;20962;-86
2020/12/15 14:54:42;;;;;;;27.40;13.78;;;;;;;6.20;91.80;102111.00;1856514;75;20903;-83
2020/12/15 14:57:10;;;;;;;19.25;13.22;;;;;;;6.18;91.71;102111.50;1860580;76;20918;-84
2020/12/15 14:59:40;;;;;;;21.77;12.55;;;;;;;6.18;91.88;102112.78;1852176;75;20930;-83
2020/12/15 15:02:08;;;;;;;16.97;12.37;;;;;;;6.18;91.74;102120.95;1861572;76;21003;-82
2020/12/15 15:04:36;;;;;;;21.57;14.30;;;;;;;6.17;91.83;102125.69;1855971;76;20974;-84
2020/12/15 15:07:04;;;;;;;23.92;16.60;;;;;;;6.17;91.84;102130.84;1902775;75;20965;-87
2020/12/15 15:09:38;;;;;;;22.73;16.60;;;;;;;6.18;91.94;102131.27;1886442;76;21667;-86
2020/12/15 15:12:08;;;;;;;20.35;14.55;;;;;;;6.17;91.91;102132.14;1903660;75;20981;-83
2020/12/15 15:14:36;;;;;;;21.23;15.30;;;;;;;6.17;91.79;102138.58;1886012;76;21188;-84
2020/12/15 15:17:04;;;;;;;20.40;15.55;;;;;;;6.16;91.67;102137.73;1904374;75;20949;-80
2020/12/15 15:19:32;;;;;;;21.97;16.00;;;;;;;6.14;91.50;102134.36;1886886;76;21520;-82
2020/12/15 15:22:00;;;;;;;19.82;14.68;;;;;;;6.14;91.53;102138.66;1904194;75;21061;-83
2020/12/15 15:24:28;;;;;;;28.67;17.02;;;;;;;6.14;91.47;102136.93;1884346;76;20977;-82
2020/12/15 15:26:56;;;;;;;25.65;17.45;;;;;;;6.15;91.60;102140.36;1893874;75;21187;-83
2020/12/15 15:29:25;;;;;;;28.90;18.62;;;;;;;6.15;91.65;102139.92;1875170;76;20982;-80
2020/12/15 15:31:53;;;;;;;26.82;18.23;;;;;;;6.17;91.66;102142.45;1893968;75;20946;-83
2020/12/15 15:34:22;;;;;;;30.57;17.60;;;;;;;6.16;91.47;102144.61;1893843;75;21041;-82
2020/12/15 15:36:50;;;;;;;26.10;18.23;;;;;;;6.16;91.49;102148.47;1894070;75;20918;-85